createdAt,value
2018-11-04T11:24:43.545Z,16.20
2018-11-04T11:27:12.029Z,16.30
2018-11-04T11:29:40.480Z,16.50
2018-11-04T11:32:09.346Z,16.90
2018-11-04T11:34:38.144Z,17.30
2018-11-04T11:37:06.885Z,17.70
2018-11-04T11:39:36.195Z,18.10
2018-11-04T11:42:04.713Z,18.50
2018-11-04T11:44:33.714Z,18.90
2018-11-04T11:47:02.913Z,19.20
2018-11-04T11:49:31.497Z,19.60
2018-11-04T11:51:59.988Z,19.90
2018-11-04T11:54:28.547Z,20.10
2018-11-04T11:56:58.224Z,20.30
2018-11-04T11:59:26.944Z,20.50
2018-11-04T12:01:56.016Z,20.70
2018-11-04T12:04:24.723Z,20.90
2018-11-04T12:06:53.363Z,21.10
2018-11-04T12:09:22.018Z,21.20
2018-11-04T12:11:50.530Z,21.30
2018-11-04T12:14:19.119Z,21.50
2018-11-04T12:16:47.669Z,21.60
2018-11-04T12:19:16.125Z,21.70
2018-11-04T12:21:45.298Z,21.80
2018-11-04T12:24:14.186Z,21.90
2018-11-04T12:26:42.838Z,21.90
2018-11-04T12:29:11.456Z,21.80
2018-11-04T12:31:40.191Z,21.80
2018-11-04T12:34:08.910Z,21.80
2018-11-04T12:36:38.093Z,21.80
2018-11-04T12:39:31.287Z,21.90
2018-11-04T12:41:59.704Z,22.00
2018-11-04T12:44:29.059Z,22.10
2018-11-04T12:47:00.449Z,22.30
2018-11-04T12:49:31.722Z,22.40
2018-11-04T12:52:05.077Z,22.50
2018-11-04T13:01:15.764Z,22.70
2018-11-04T13:03:45.484Z,22.70
2018-11-04T13:06:14.115Z,22.60
2018-11-04T13:08:43.065Z,22.50
2018-11-04T13:11:11.838Z,22.50
2018-11-04T13:13:40.262Z,22.60
2018-11-04T13:16:08.918Z,22.70
2018-11-04T13:18:37.779Z,22.90
2018-11-04T13:21:06.803Z,23.00
2018-11-04T13:23:35.786Z,23.10
2018-11-04T13:26:04.209Z,23.20
2018-11-04T13:28:32.963Z,23.30
2018-11-04T13:31:01.606Z,23.30
2018-11-04T13:33:30.178Z,23.40
2018-11-04T13:35:58.747Z,23.50
2018-11-04T13:38:28.014Z,23.50
2018-11-04T13:40:56.480Z,23.50
2018-11-04T14:13:35.587Z,24.10
2018-11-04T14:16:04.840Z,24.20
2018-11-04T14:18:33.530Z,24.30
2018-11-04T14:21:02.417Z,24.30
2018-11-04T14:23:31.152Z,24.40
2018-11-04T14:25:59.694Z,24.40
2018-11-04T14:28:28.863Z,24.30
2018-11-04T14:30:57.562Z,24.30
2018-11-04T14:33:26.834Z,24.20
2018-11-04T14:35:55.528Z,24.10
2018-11-04T14:41:00.215Z,24.00
2018-11-04T14:50:37.014Z,23.60
2018-11-04T14:53:06.456Z,23.40
2018-11-04T14:55:34.854Z,23.30
2018-11-04T14:58:03.501Z,23.20
2018-11-04T15:00:35.041Z,23.20
2018-11-04T15:03:04.142Z,23.20
2018-11-04T15:05:32.692Z,23.20
2018-11-04T15:08:03.361Z,23.30
2018-11-04T15:10:31.956Z,23.50
2018-11-04T15:13:00.584Z,23.70
2018-11-04T15:15:29.441Z,23.90
2018-11-04T15:17:58.184Z,24.10
2018-11-04T15:20:26.693Z,24.10
2018-11-04T15:22:55.902Z,24.20
2018-11-04T15:25:24.457Z,24.10
2018-11-04T15:27:52.900Z,24.10
2018-11-04T15:30:21.323Z,24.00
2018-11-04T15:32:49.841Z,24.00
2018-11-04T15:35:18.537Z,23.90
2018-11-04T15:37:47.217Z,23.80
2018-11-04T15:40:16.536Z,23.70
2018-11-04T15:42:44.992Z,23.60
2018-11-04T15:45:14.572Z,23.60
2018-11-04T15:47:43.111Z,23.50
2018-11-04T15:50:13.411Z,23.40
2018-11-04T15:52:42.356Z,23.40
2018-11-04T15:55:10.996Z,23.30
2018-11-04T15:57:39.543Z,23.20
2018-11-04T16:00:10.193Z,23.70
2018-11-04T16:02:39.061Z,23.10
2018-11-04T16:05:08.392Z,23.00
2018-11-04T16:07:36.952Z,23.00
2018-11-04T16:10:07.149Z,22.90
2018-11-04T16:12:35.838Z,22.90
2018-11-04T16:15:04.681Z,22.90
2018-11-04T16:17:33.176Z,22.90
2018-11-04T16:20:28.784Z,22.90
2018-11-04T16:22:57.909Z,22.90
2018-11-04T16:25:28.509Z,23.10
2018-11-04T16:28:10.713Z,23.20
2018-11-04T16:30:53.442Z,23.30
2018-11-04T16:33:22.083Z,23.50
2018-11-04T16:35:50.521Z,23.60
2018-11-04T16:38:19.130Z,23.60
2018-11-04T16:40:47.989Z,23.60
2018-11-04T16:43:22.973Z,23.60
2018-11-04T16:50:11.020Z,23.40
2018-11-04T16:52:40.573Z,23.40
2018-11-04T16:55:10.447Z,23.20
2018-11-04T16:57:41.872Z,23.20
2018-11-04T17:00:19.661Z,23.10
2018-11-04T17:02:48.380Z,23.10
2018-11-04T17:05:17.458Z,23.00
2018-11-04T17:07:47.902Z,22.90
2018-11-04T17:10:16.727Z,22.80
2018-11-04T17:12:46.499Z,22.80
2018-11-04T17:15:15.878Z,22.70
2018-11-04T17:17:55.838Z,22.70
2018-11-04T17:20:24.529Z,22.60
2018-11-04T17:23:00.527Z,22.60
2018-11-04T17:25:29.585Z,22.60
2018-11-04T17:27:58.232Z,22.60
2018-11-04T17:30:30.402Z,22.50
2018-11-04T17:33:00.704Z,22.50
2018-11-04T17:35:30.317Z,22.50
2018-11-04T17:37:59.820Z,22.40
2018-11-04T17:40:28.812Z,22.40
2018-11-04T17:42:58.302Z,22.30
2018-11-04T17:45:28.645Z,22.30
2018-11-04T17:47:57.496Z,22.30
2018-11-04T17:50:26.154Z,22.30
2018-11-04T17:52:55.921Z,22.20
2018-11-04T17:55:24.707Z,22.10
2018-11-04T17:57:53.342Z,22.10
2018-11-04T18:00:21.962Z,22.10
2018-11-04T18:02:54.379Z,22.00
2018-11-04T18:05:23.792Z,22.00
2018-11-04T18:07:53.301Z,22.00
2018-11-04T18:10:22.169Z,21.90
2018-11-04T18:12:50.673Z,21.90
2018-11-04T18:15:20.175Z,21.80
2018-11-04T18:17:48.716Z,21.70
2018-11-04T18:20:17.342Z,21.60
2018-11-04T18:22:45.928Z,21.60
2018-11-04T18:25:14.469Z,21.60
2018-11-04T18:27:43.819Z,21.70
2018-11-04T18:30:15.154Z,21.80
2018-11-04T18:32:44.943Z,21.90
2018-11-04T18:35:13.941Z,22.10
2018-11-04T18:37:42.546Z,22.20
2018-11-04T18:40:13.666Z,22.30
2018-11-04T18:42:46.744Z,22.50
2018-11-04T18:45:16.414Z,22.50
2018-11-04T18:47:45.069Z,22.70
2018-11-04T18:50:14.624Z,22.70
2018-11-04T18:52:43.624Z,22.90
2018-11-04T18:55:12.743Z,23.00
2018-11-04T18:57:47.898Z,23.10
2018-11-04T19:00:17.830Z,23.30
2018-11-04T19:02:47.289Z,23.50
2018-11-04T19:05:16.686Z,23.80
2018-11-04T19:07:46.769Z,24.00
2018-11-04T19:10:21.966Z,24.20
2018-11-04T19:12:53.623Z,24.30
2018-11-04T19:15:22.175Z,24.40
2018-11-04T19:17:52.815Z,24.30
2018-11-04T19:20:40.372Z,24.20
2018-11-04T19:23:18.741Z,24.00
2018-11-04T19:25:52.713Z,23.90
2018-11-04T19:28:21.469Z,23.80
2018-11-04T19:30:50.242Z,23.70
2018-11-04T19:33:18.672Z,23.70
2018-11-04T19:35:47.145Z,23.70
2018-11-04T19:38:16.327Z,23.50
2018-11-04T19:40:44.892Z,23.60
2018-11-04T19:43:13.451Z,23.60
2018-11-04T19:45:41.997Z,23.60
2018-11-04T19:48:10.823Z,23.70
2018-11-04T19:50:39.367Z,23.70
2018-11-04T19:53:07.948Z,23.90
2018-11-04T19:55:36.517Z,24.00
2018-11-04T19:58:05.201Z,24.10
2018-11-04T20:00:33.744Z,24.20
2018-11-04T20:03:03.523Z,24.20
2018-11-04T20:05:32.952Z,24.30
2018-11-04T20:08:01.641Z,24.30
2018-11-04T20:10:30.316Z,24.40
2018-11-04T20:13:04.317Z,24.30
2018-11-04T20:15:32.891Z,24.30
2018-11-04T20:18:05.861Z,24.30
2018-11-04T20:20:34.343Z,24.20
2018-11-04T20:23:03.699Z,24.10
2018-11-04T20:25:40.065Z,24.00
2018-11-04T20:28:09.618Z,23.90
2018-11-04T20:30:38.366Z,23.80
2018-11-04T20:33:14.215Z,23.70
2018-11-04T20:35:43.276Z,23.80
2018-11-04T20:38:12.558Z,23.80
2018-11-04T20:40:47.918Z,23.90
2018-11-04T20:43:17.945Z,24.00
2018-11-04T20:45:47.555Z,24.10
2018-11-04T20:48:23.705Z,24.20
2018-11-04T20:51:03.156Z,24.30
2018-11-04T20:53:43.387Z,24.40
2018-11-04T20:56:21.423Z,24.40
2018-11-04T20:58:52.641Z,24.40
2018-11-04T21:01:21.498Z,24.30
2018-11-04T21:03:50.862Z,24.30
2018-11-04T21:06:20.188Z,24.20
2018-11-04T21:08:48.876Z,24.10
2018-11-04T21:11:20.834Z,24.00
2018-11-04T21:13:49.913Z,24.00
2018-11-04T21:16:19.738Z,23.90
2018-11-04T21:18:49.362Z,23.80
2018-11-04T21:21:19.134Z,23.80
2018-11-04T21:23:49.868Z,23.70
2018-11-04T21:26:20.320Z,23.70
2018-11-04T21:28:53.625Z,23.60
2018-11-04T21:31:52.145Z,23.50
2018-11-04T21:34:22.326Z,23.50
2018-11-04T21:36:51.806Z,23.40
2018-11-04T21:39:20.747Z,23.30
2018-11-04T21:41:54.281Z,23.30
2018-11-04T21:44:23.979Z,23.30
2018-11-04T21:47:05.423Z,23.30
2018-11-04T22:09:43.842Z,23.10
2018-11-04T22:12:14.632Z,23.10
2018-11-04T22:14:44.944Z,23.10
2018-11-04T22:17:15.611Z,23.00
2018-11-04T22:19:46.195Z,23.10
2018-11-04T22:22:15.753Z,23.10
2018-11-04T22:24:44.909Z,23.10
2018-11-04T22:27:15.034Z,23.10
2018-11-04T22:29:44.573Z,23.10
2018-11-04T22:32:13.529Z,23.00
2018-11-04T22:34:42.851Z,23.10
2018-11-04T22:37:11.650Z,23.00
2018-11-04T22:39:40.598Z,23.00
2018-11-04T22:42:09.292Z,23.00
2018-11-04T22:44:37.953Z,23.10
2018-11-04T22:47:06.653Z,23.10
2018-11-04T22:49:35.450Z,23.00
2018-11-04T22:52:05.890Z,23.00
2018-11-04T22:54:35.264Z,23.00
2018-11-04T22:57:04.016Z,23.00
2018-11-04T22:59:32.727Z,23.00
2018-11-04T23:02:01.902Z,23.00
2018-11-04T23:04:36.152Z,22.90
2018-11-04T23:07:05.057Z,22.90
2018-11-04T23:09:33.955Z,22.90
2018-11-04T23:12:03.527Z,22.80
2018-11-04T23:14:32.330Z,22.70
2018-11-04T23:17:01.020Z,22.60
2018-11-04T23:19:30.277Z,22.60
2018-11-04T23:21:59.028Z,22.60
2018-11-04T23:24:27.970Z,22.50
2018-11-04T23:26:56.622Z,22.50
2018-11-04T23:29:25.145Z,22.50
2018-11-04T23:31:53.805Z,22.40
2018-11-04T23:34:23.273Z,22.40
2018-11-04T23:36:51.807Z,22.40
2018-11-04T23:39:20.833Z,22.30
2018-11-04T23:41:49.527Z,22.30
2018-11-04T23:44:18.304Z,22.30
2018-11-04T23:46:47.100Z,22.20
2018-11-04T23:49:16.789Z,22.30
2018-11-04T23:51:45.660Z,22.20
2018-11-04T23:54:14.497Z,22.20
2018-11-04T23:56:43.423Z,22.10
2018-11-04T23:59:11.863Z,22.10
